[source: ADDS]
METAR
EDVE 260920Z VRB03KT 9999 SCT020 16/09 Q1036

TAF EDVE 260800Z 2609/2618 35005KT 9999 BKN012 BECMG 2609/2610 SCT015 EDDV 260920Z VRB03KT 9999 FEW015 15/10 Q1036 NOSIG

TAF EDDV 260500Z 2606/2706 VRB03KT 9999 SCT040 TEMPO 2606/2609 BKN013 ETHS 260820Z 31003KT 9999 FEW040 14/09 Q1036 BLU+

ETHC 260820Z 17003KT 9999 FEW016 SCT029 14/09 Q1036 BLU+BLU+

TAF ETHC 260721Z 2608/2617 35005KT 9999 NSW SCT030 SCT050 EDVK 260920Z VRB03KT 9999 FEW014 SCT020 15/09 Q1035

TAF EDVK 260800Z 2609/2618 02004KT 9999 SCT040
TAF
TAF EDVE 260800Z 2609/2618 35005KT 9999 BKN012 BECMG 2609/2610 SCT015

TAF EDDV 260500Z 2606/2706 VRB03KT 9999 SCT040 TEMPO 2606/2609 BKN013

TAF ETHC 260721Z 2608/2617 35005KT 9999 NSW SCT030 SCT050

TAF EDVK 260800Z 2609/2618 02004KT 9999 SCT040

SR / SS: 03:07 / 19:22 UTC (EDVE 2020-05-26)
Mitgliederversammlung als Online-Konferenz am 28.05.2020. +++ Flugbetrieb und Ausbildungsbetrieb unter Auflagen wieder möglich. +++ Gero steht ebenfalls als Fluglehrer zur Verfügung! Vielen Dank an Gero und viel Erfolg beim Ausbilden. +++ Ilya hat die Theorieprüfung bestanden! Herzlichen Glückwunsch und weiterhin viel Erfolg für die restliche Ausbildung! +++ Hallo Felix, herzlich Willkommen bei der FFG und viel Erfolg für deine Pilotenausbildung! +++ Jens verstärkt als neuer Fluglehrer ab sofort unser FFG-Fluglehrer-Team. Glückwunsch und viel Erfolg beim Ausbilden! +++ Wir beglückwünschen Sebastian zur bestandenen PPL-Theorie-Prüfung! Weiterhin viel Erfolg bei der Ausbildung! +++ Stefan hat die praktische Prüfung bestanden! Herzlichen Glückwunsch und Always Happy Landings! +++ Ein weiteres Mitglied hat die Prüfung zum Fluglehrer gemeistert. Glückwunsch Nico und viel Erfolg beim Ausbilden! +++ Florian Hansmann ist ab sofort als Fluglehrer für die FFG tätig! Danke für das Engagement und viel Spaß mit deinen zukünftigen Schülern! +++ Willkommen im Verein Michael und viel Erfolg für deine Ausbildung! +++ Herzlich Willkommen bei der FFG Jens!

wenig -> mittel -> viel

Professionelle Piloten arbeiten mit Checkliste
Ausdrucken und abarbeiten! Vorbereitete Links helfen bei der Beschaffung der notwendigen Informationen.

Weiterlesen ...

Hier gibt es die AIP mit allen erforderlichen Karten die im Abo der FFG liegen zum Download für unsere Mitglieder.

          aerodata150     Radio38